Rechercher aéroport 
image banner adimage banner adimage banner ad
image banner ad

KNKX - Miramar Mcas

Situé à San Diego, United States

ICAO - NKX, IATA -

Données fournies par Airmate  

Information générale

Coordonnées: N32°52'7" W117°8'35"
Élévation : 477 feet MSL.
Variation magnétique : 12° East
Voir autres Aéroports à California

Données opérationnelles

Special qualification required
Heure actuelle UTC:
Heure actuelle locale:
Météo
METAR: KNKX 260955Z 30003KT 10SM OVC010 17/16 A3001 RMK AO2 SLP156 T01720156
TAF: TAF KNKX 2609/2709 VRB05KT 9999 OVC010 QNH2996INS BECMG 2614/2616 VRB06KT 9999 FEW015 QNH3002INS FM261930 29008KT 9999 SKC QNH3001INS T16/2614Z T23/2620Z
Voir NOTAMs / SUP AIP / TFR affectant cet aéroport [VIEW]
Fréquences de communication: [VIEW]

Pistes:

Identifiant RWYQFULongueur (ft)Largeur (ft)SurfaceLDA (ft)
06R75°8001200OTHER
24L255°8001200OTHER
06L75°12000200CONC
24R255°12000200CONC

Coordonnées de l'aéroport

Adresse: San Diego United States

Vue satellite de KNKX